Helper, Utah
Current Conditions -  °F | °C
As of 4:53 PM on Sunday 25 Jan 2015 (Local Time) from KPUC Reporting Station
Clear Clear  
Wind Chill: 45°   Ceiling: Unl
Heat Index: 48°   Visibility: 10mi
Dew Point: 22°   Wind: 7mph
Humidity: 36%   Direction: 80°E
Pressure: 30.33"   Gusts: NA
Location:  39.68°N, 110.85°W
Report Text: KPUC 252353Z AUTO 08006KT 10SM CLR 09/M06 A3033 RMK AO2 SLP294 T00891056 10106 20039 55003
Loading
Personal Weather Stations






























Interactive Weather Map New forecast layout! Learn more

10-Day Weather Forecast

Advertisements
Track Severe Weather on mobile